Davenport, FL

6:47 PM EST on February 16, 2019 (GMT -0500)
Rod weather station | | Change Station

Elev 157 ft 28.19 °N, 81.63 °W | Updated 25 seconds ago

Partly Cloudy
Partly Cloudy
71.4 °F
Feels Like 75 °F
N
3.8
Wind Variable Wind from SW
Gusts 8.7 mph

Today
High -- | Low -- °F
--% Chance of Precip.
Yesterday
High -- | Low -- °F
Precip. -- in
Pressure 29.88 in
Visibility 10.0 miles
Clouds Clear
Heat Index 75 °F
Dew Point 60 °F
Humidity 67%
Rainfall 0.00 in
Snow Depth Not available.
7:03 AM 6:17 PM
Waxing Gibbous, 90% visible
METAR KGIF 162253Z AUTO 25009KT 10SM CLR 26/17 A2989 RMK AO2 SLP118 T02560167
Pressure 29.88 in
Visibility 10.0 miles
Clouds Clear
Heat Index 75 °F
Dew Point 60 °F
Humidity 67%
Rainfall 0.00 in
Snow Depth Not available.
7:03 AM 6:17 PM
Waxing Gibbous, 90% visible
METAR KGIF 162253Z AUTO 25009KT 10SM CLR 26/17 A2989 RMK AO2 SLP118 T02560167

Get Severe Weather Alerts

Thanks for signing up!

Be on the lookout for a verification email in your inbox.

You'll start receiving the daily forecast at 6 AM.

×

10-Day Weather Forecast

Almanac

Astronomy

Feb. 16, 2019 Rise Set
Actual Time
Civil Twilight
Nautical Twilight
Astronomical Twilight
Moon
Length of Visible Light
Length of Day
Tomorrow will be .
, % of the Moon is Illuminated

Today's Extremes

State Highs State Lows

Community

WunderPhotos

Category 6

Welcome to Category 6. This is the collective home for Weather Underground's featured writeups by Dr. Jeff Masters (right), Bob Henson (left), Chris Burt, and other regular contributors.

Nearby

Air Quality

  Air Quality AQ Index Pollutant
Not available.

Snow Depth

Station Depth Elevation

Earthquake Activity

City Distance Mag. Time & Date
Minimum magnitude displayed is 2.5.

Coastal Water Temperatures

Place Temperature

Stations

Nearby Weather Stations

Station Location Temp. Windchill Dew Point Humidity Wind Precip. Elev Updated Type
                   

Watches & Warnings

There are currently no watches in effect.